Arrowsic, Maine
Current Conditions -  °F | °C
As of 2:53 PM on Sunday 21 Dec 2014 (Local Time) from KIWI Reporting Station
Clear Clear  
Wind Chill: 33°   Ceiling: Unl
Heat Index: 33°   Visibility: 10mi
Dew Point: 24°   Wind: 0mph
Humidity: 70%   Direction: NA
Pressure: 30.34"   Gusts: NA
Location:  43.8797°N, 69.8408°W
Report Text: KIWI 211953Z AUTO 00000KT 10SM CLR 01/M04 A3034 RMK AO2 SLP276 T00061044
Loading
Personal Weather Stations






























Interactive Weather Map New forecast layout! Learn more

10-Day Weather Forecast

Advertisements
Track Severe Weather on mobile